sensor_id;sensor_type;location;lat;lon;timestamp;temperature;humidity
21092;DHT22;10704;42.678;23.288;2023-05-14T00:02:18;13.90;99.90
21092;DHT22;10704;42.678;23.288;2023-05-14T00:04:44;14.00;99.90
21092;DHT22;10704;42.678;23.288;2023-05-14T00:07:10;14.00;99.90
21092;DHT22;10704;42.678;23.288;2023-05-14T00:09:36;14.00;99.90
21092;DHT22;10704;42.678;23.288;2023-05-14T00:12:02;14.00;99.90
21092;DHT22;10704;42.678;23.288;2023-05-14T00:14:28;13.90;99.90
21092;DHT22;10704;42.678;23.288;2023-05-14T00:16:54;13.90;99.90
21092;DHT22;10704;42.678;23.288;2023-05-14T00:19:20;13.90;99.90
21092;DHT22;10704;42.678;23.288;2023-05-14T00:21:46;13.90;99.90
21092;DHT22;10704;42.678;23.288;2023-05-14T00:24:12;13.90;99.90
21092;DHT22;10704;42.678;23.288;2023-05-14T00:26:38;13.80;99.90
21092;DHT22;10704;42.678;23.288;2023-05-14T00:29:04;13.90;99.90
21092;DHT22;10704;42.678;23.288;2023-05-14T00:31:30;13.80;99.90
21092;DHT22;10704;42.678;23.288;2023-05-14T00:33:56;13.70;99.90
21092;DHT22;10704;42.678;23.288;2023-05-14T00:36:22;13.80;99.90
21092;DHT22;10704;42.678;23.288;2023-05-14T00:38:48;13.80;99.90
21092;DHT22;10704;42.678;23.288;2023-05-14T00:41:14;13.70;99.90
21092;DHT22;10704;42.678;23.288;2023-05-14T00:43:40;13.70;99.90
21092;DHT22;10704;42.678;23.288;2023-05-14T00:46:06;13.70;99.90
21092;DHT22;10704;42.678;23.288;2023-05-14T00:48:32;13.70;99.90
21092;DHT22;10704;42.678;23.288;2023-05-14T00:50:59;13.70;99.90
21092;DHT22;10704;42.678;23.288;2023-05-14T00:53:25;13.70;99.90
21092;DHT22;10704;42.678;23.288;2023-05-14T00:55:51;13.70;99.90
21092;DHT22;10704;42.678;23.288;2023-05-14T00:58:19;13.70;99.90
21092;DHT22;10704;42.678;23.288;2023-05-14T01:00:45;13.60;99.90
21092;DHT22;10704;42.678;23.288;2023-05-14T01:03:11;13.70;99.90
21092;DHT22;10704;42.678;23.288;2023-05-14T01:08:15;13.60;99.90
21092;DHT22;10704;42.678;23.288;2023-05-14T01:10:51;13.60;99.90
21092;DHT22;10704;42.678;23.288;2023-05-14T01:13:26;13.60;99.90
21092;DHT22;10704;42.678;23.288;2023-05-14T01:15:55;13.60;99.90
21092;DHT22;10704;42.678;23.288;2023-05-14T01:18:23;13.60;99.90
21092;DHT22;10704;42.678;23.288;2023-05-14T01:20:50;13.60;99.90
21092;DHT22;10704;42.678;23.288;2023-05-14T01:23:19;13.60;99.90
21092;DHT22;10704;42.678;23.288;2023-05-14T01:25:45;13.60;99.90
21092;DHT22;10704;42.678;23.288;2023-05-14T01:28:19;13.60;99.90
21092;DHT22;10704;42.678;23.288;2023-05-14T01:33:17;13.50;99.90
21092;DHT22;10704;42.678;23.288;2023-05-14T01:35:43;13.50;99.90
21092;DHT22;10704;42.678;23.288;2023-05-14T01:38:12;13.60;99.90
21092;DHT22;10704;42.678;23.288;2023-05-14T01:40:38;13.60;99.90
21092;DHT22;10704;42.678;23.288;2023-05-14T01:43:05;13.50;99.90
21092;DHT22;10704;42.678;23.288;2023-05-14T01:45:34;13.50;99.90
21092;DHT22;10704;42.678;23.288;2023-05-14T01:48:00;13.40;99.90
21092;DHT22;10704;42.678;23.288;2023-05-14T01:50:25;13.40;99.90
21092;DHT22;10704;42.678;23.288;2023-05-14T01:52:52;13.40;99.90
21092;DHT22;10704;42.678;23.288;2023-05-14T01:55:21;13.50;99.90
21092;DHT22;10704;42.678;23.288;2023-05-14T01:57:50;13.50;99.90
21092;DHT22;10704;42.678;23.288;2023-05-14T02:00:16;13.40;99.90
21092;DHT22;10704;42.678;23.288;2023-05-14T02:02:41;13.30;99.90
21092;DHT22;10704;42.678;23.288;2023-05-14T02:05:11;13.20;99.90
21092;DHT22;10704;42.678;23.288;2023-05-14T02:07:37;13.10;99.90
21092;DHT22;10704;42.678;23.288;2023-05-14T02:10:03;13.10;99.90
21092;DHT22;10704;42.678;23.288;2023-05-14T02:12:30;13.10;99.90
21092;DHT22;10704;42.678;23.288;2023-05-14T02:14:55;13.10;99.90
21092;DHT22;10704;42.678;23.288;2023-05-14T02:17:21;13.10;99.90
21092;DHT22;10704;42.678;23.288;2023-05-14T02:19:47;13.00;99.90
21092;DHT22;10704;42.678;23.288;2023-05-14T02:22:13;13.00;99.90
21092;DHT22;10704;42.678;23.288;2023-05-14T02:24:39;13.10;99.90
21092;DHT22;10704;42.678;23.288;2023-05-14T02:27:06;13.00;99.90
21092;DHT22;10704;42.678;23.288;2023-05-14T02:29:31;12.90;99.90
21092;DHT22;10704;42.678;23.288;2023-05-14T02:31:57;12.80;99.90
21092;DHT22;10704;42.678;23.288;2023-05-14T02:34:23;12.70;99.90
21092;DHT22;10704;42.678;23.288;2023-05-14T02:36:49;12.70;99.90
21092;DHT22;10704;42.678;23.288;2023-05-14T02:39:15;12.60;99.90
21092;DHT22;10704;42.678;23.288;2023-05-14T02:41:44;12.70;99.90
21092;DHT22;10704;42.678;23.288;2023-05-14T02:44:10;12.70;99.90
21092;DHT22;10704;42.678;23.288;2023-05-14T02:46:36;12.70;99.90
21092;DHT22;10704;42.678;23.288;2023-05-14T02:49:01;12.60;99.90
21092;DHT22;10704;42.678;23.288;2023-05-14T02:51:27;12.60;99.90
21092;DHT22;10704;42.678;23.288;2023-05-14T02:53:53;12.70;99.90
21092;DHT22;10704;42.678;23.288;2023-05-14T02:56:19;12.70;99.90
21092;DHT22;10704;42.678;23.288;2023-05-14T02:58:45;12.70;99.90
21092;DHT22;10704;42.678;23.288;2023-05-14T03:01:11;12.70;99.90
21092;DHT22;10704;42.678;23.288;2023-05-14T03:03:37;12.70;99.90
21092;DHT22;10704;42.678;23.288;2023-05-14T03:06:03;12.80;99.90
21092;DHT22;10704;42.678;23.288;2023-05-14T03:08:29;12.70;99.90
21092;DHT22;10704;42.678;23.288;2023-05-14T03:10:55;12.80;99.90
21092;DHT22;10704;42.678;23.288;2023-05-14T03:13:21;12.70;99.90
21092;DHT22;10704;42.678;23.288;2023-05-14T03:15:47;12.70;99.90
21092;DHT22;10704;42.678;23.288;2023-05-14T03:18:13;12.60;99.90
21092;DHT22;10704;42.678;23.288;2023-05-14T03:20:39;12.60;99.90
21092;DHT22;10704;42.678;23.288;2023-05-14T03:23:06;12.60;99.90
21092;DHT22;10704;42.678;23.288;2023-05-14T03:25:32;12.50;99.90
21092;DHT22;10704;42.678;23.288;2023-05-14T03:27:59;12.30;99.90
21092;DHT22;10704;42.678;23.288;2023-05-14T03:30:24;12.30;99.90
21092;DHT22;10704;42.678;23.288;2023-05-14T03:32:50;12.20;99.90
21092;DHT22;10704;42.678;23.288;2023-05-14T03:35:16;12.20;99.90
21092;DHT22;10704;42.678;23.288;2023-05-14T03:37:42;12.10;99.90
21092;DHT22;10704;42.678;23.288;2023-05-14T03:40:08;11.90;99.90
21092;DHT22;10704;42.678;23.288;2023-05-14T03:42:35;11.80;99.90
21092;DHT22;10704;42.678;23.288;2023-05-14T03:45:01;11.70;99.90
21092;DHT22;10704;42.678;23.288;2023-05-14T03:47:28;11.70;99.90
21092;DHT22;10704;42.678;23.288;2023-05-14T03:49:55;11.70;99.90
21092;DHT22;10704;42.678;23.288;2023-05-14T03:52:21;11.70;99.90
21092;DHT22;10704;42.678;23.288;2023-05-14T03:54:47;11.80;99.90
21092;DHT22;10704;42.678;23.288;2023-05-14T03:57:14;11.70;99.90
21092;DHT22;10704;42.678;23.288;2023-05-14T03:59:40;11.90;99.90
21092;DHT22;10704;42.678;23.288;2023-05-14T04:02:06;11.90;99.90
21092;DHT22;10704;42.678;23.288;2023-05-14T04:04:32;12.00;99.90
21092;DHT22;10704;42.678;23.288;2023-05-14T04:06:58;11.90;99.90
21092;DHT22;10704;42.678;23.288;2023-05-14T04:09:26;11.90;99.90
21092;DHT22;10704;42.678;23.288;2023-05-14T04:11:52;12.00;99.90
21092;DHT22;10704;42.678;23.288;2023-05-14T04:14:18;12.00;99.90
21092;DHT22;10704;42.678;23.288;2023-05-14T04:16:44;12.00;99.90
21092;DHT22;10704;42.678;23.288;2023-05-14T04:19:10;12.20;99.90
21092;DHT22;10704;42.678;23.288;2023-05-14T04:21:35;12.20;99.90
21092;DHT22;10704;42.678;23.288;2023-05-14T04:24:01;12.20;99.90
21092;DHT22;10704;42.678;23.288;2023-05-14T04:26:28;12.20;99.90
21092;DHT22;10704;42.678;23.288;2023-05-14T04:28:54;12.20;99.90
21092;DHT22;10704;42.678;23.288;2023-05-14T04:31:20;12.20;99.90
21092;DHT22;10704;42.678;23.288;2023-05-14T04:33:46;12.20;99.90
21092;DHT22;10704;42.678;23.288;2023-05-14T04:36:11;12.20;99.90
21092;DHT22;10704;42.678;23.288;2023-05-14T04:38:37;12.20;99.90
21092;DHT22;10704;42.678;23.288;2023-05-14T04:41:03;12.10;99.90
21092;DHT22;10704;42.678;23.288;2023-05-14T04:43:29;12.10;99.90
21092;DHT22;10704;42.678;23.288;2023-05-14T04:45:55;12.00;99.90
21092;DHT22;10704;42.678;23.288;2023-05-14T04:48:21;12.10;99.90
21092;DHT22;10704;42.678;23.288;2023-05-14T04:50:47;12.00;99.90
21092;DHT22;10704;42.678;23.288;2023-05-14T04:53:12;12.00;99.90
21092;DHT22;10704;42.678;23.288;2023-05-14T04:55:38;11.80;99.90
21092;DHT22;10704;42.678;23.288;2023-05-14T04:58:04;11.70;99.90
21092;DHT22;10704;42.678;23.288;2023-05-14T05:00:30;11.70;99.90
21092;DHT22;10704;42.678;23.288;2023-05-14T05:02:56;11.80;99.90
21092;DHT22;10704;42.678;23.288;2023-05-14T05:05:23;11.60;99.90
21092;DHT22;10704;42.678;23.288;2023-05-14T05:07:48;11.40;99.90
21092;DHT22;10704;42.678;23.288;2023-05-14T05:10:14;11.40;99.90
21092;DHT22;10704;42.678;23.288;2023-05-14T05:12:40;11.40;99.90
21092;DHT22;10704;42.678;23.288;2023-05-14T05:15:07;11.40;99.90
21092;DHT22;10704;42.678;23.288;2023-05-14T05:17:34;11.40;99.90
21092;DHT22;10704;42.678;23.288;2023-05-14T05:20:00;11.20;99.90
21092;DHT22;10704;42.678;23.288;2023-05-14T05:22:26;11.10;99.90
21092;DHT22;10704;42.678;23.288;2023-05-14T05:24:51;10.90;99.90
21092;DHT22;10704;42.678;23.288;2023-05-14T05:27:17;10.80;99.90
21092;DHT22;10704;42.678;23.288;2023-05-14T05:29:45;10.80;99.90
21092;DHT22;10704;42.678;23.288;2023-05-14T05:32:11;10.80;99.90
21092;DHT22;10704;42.678;23.288;2023-05-14T05:34:36;10.70;99.90
21092;DHT22;10704;42.678;23.288;2023-05-14T05:37:03;10.60;99.90
21092;DHT22;10704;42.678;23.288;2023-05-14T05:39:30;10.60;99.90
21092;DHT22;10704;42.678;23.288;2023-05-14T05:42:00;10.60;99.90
21092;DHT22;10704;42.678;23.288;2023-05-14T05:44:27;10.60;99.90
21092;DHT22;10704;42.678;23.288;2023-05-14T05:46:52;10.50;99.90
21092;DHT22;10704;42.678;23.288;2023-05-14T05:49:21;10.30;99.90
21092;DHT22;10704;42.678;23.288;2023-05-14T05:51:47;10.30;99.90
21092;DHT22;10704;42.678;23.288;2023-05-14T05:54:13;10.20;99.90
21092;DHT22;10704;42.678;23.288;2023-05-14T05:56:39;10.20;99.90
21092;DHT22;10704;42.678;23.288;2023-05-14T05:59:05;10.10;99.90
21092;DHT22;10704;42.678;23.288;2023-05-14T06:01:31;10.10;99.90
21092;DHT22;10704;42.678;23.288;2023-05-14T06:03:57;10.00;99.90
21092;DHT22;10704;42.678;23.288;2023-05-14T06:06:23;10.10;99.90
21092;DHT22;10704;42.678;23.288;2023-05-14T06:08:48;10.00;99.90
21092;DHT22;10704;42.678;23.288;2023-05-14T06:11:14;10.10;99.90
21092;DHT22;10704;42.678;23.288;2023-05-14T06:13:41;10.00;99.90
21092;DHT22;10704;42.678;23.288;2023-05-14T06:16:07;9.90;99.90
21092;DHT22;10704;42.678;23.288;2023-05-14T06:18:33;9.90;99.90
21092;DHT22;10704;42.678;23.288;2023-05-14T06:20:58;9.80;99.90
21092;DHT22;10704;42.678;23.288;2023-05-14T06:23:25;9.80;99.90
21092;DHT22;10704;42.678;23.288;2023-05-14T06:25:51;9.90;99.90
21092;DHT22;10704;42.678;23.288;2023-05-14T06:28:17;9.90;99.90
21092;DHT22;10704;42.678;23.288;2023-05-14T06:30:42;9.90;99.90
21092;DHT22;10704;42.678;23.288;2023-05-14T06:33:08;9.80;99.90
21092;DHT22;10704;42.678;23.288;2023-05-14T06:35:34;9.90;99.90
21092;DHT22;10704;42.678;23.288;2023-05-14T06:38:00;9.80;99.90
21092;DHT22;10704;42.678;23.288;2023-05-14T06:40:26;9.80;99.90
21092;DHT22;10704;42.678;23.288;2023-05-14T06:42:52;9.70;99.90
21092;DHT22;10704;42.678;23.288;2023-05-14T06:45:18;9.80;99.90
21092;DHT22;10704;42.678;23.288;2023-05-14T06:47:44;9.70;99.90
21092;DHT22;10704;42.678;23.288;2023-05-14T06:50:10;9.70;99.90
21092;DHT22;10704;42.678;23.288;2023-05-14T06:52:36;9.70;99.90
21092;DHT22;10704;42.678;23.288;2023-05-14T06:55:02;9.80;99.90
21092;DHT22;10704;42.678;23.288;2023-05-14T06:57:28;9.80;99.90
21092;DHT22;10704;42.678;23.288;2023-05-14T06:59:54;9.80;99.90
21092;DHT22;10704;42.678;23.288;2023-05-14T07:02:19;9.70;99.90
21092;DHT22;10704;42.678;23.288;2023-05-14T07:04:45;9.80;99.90
21092;DHT22;10704;42.678;23.288;2023-05-14T07:07:11;9.90;99.90
21092;DHT22;10704;42.678;23.288;2023-05-14T07:09:40;9.90;99.90
21092;DHT22;10704;42.678;23.288;2023-05-14T07:12:07;10.10;99.90
21092;DHT22;10704;42.678;23.288;2023-05-14T07:14:33;10.40;99.90
21092;DHT22;10704;42.678;23.288;2023-05-14T07:16:59;10.30;99.90
21092;DHT22;10704;42.678;23.288;2023-05-14T07:19:25;10.20;99.90
21092;DHT22;10704;42.678;23.288;2023-05-14T07:21:53;10.20;99.90
21092;DHT22;10704;42.678;23.288;2023-05-14T07:24:19;10.00;99.90
21092;DHT22;10704;42.678;23.288;2023-05-14T07:26:44;10.00;99.90
21092;DHT22;10704;42.678;23.288;2023-05-14T07:29:10;10.00;99.90
21092;DHT22;10704;42.678;23.288;2023-05-14T07:31:36;10.10;99.90
21092;DHT22;10704;42.678;23.288;2023-05-14T07:34:02;10.00;99.90
21092;DHT22;10704;42.678;23.288;2023-05-14T07:36:28;9.90;99.90
21092;DHT22;10704;42.678;23.288;2023-05-14T07:38:53;9.80;99.90
21092;DHT22;10704;42.678;23.288;2023-05-14T07:41:19;9.90;99.90
21092;DHT22;10704;42.678;23.288;2023-05-14T07:43:46;9.80;99.90
21092;DHT22;10704;42.678;23.288;2023-05-14T07:46:11;10.00;99.90
21092;DHT22;10704;42.678;23.288;2023-05-14T07:48:37;10.00;99.90
21092;DHT22;10704;42.678;23.288;2023-05-14T07:51:03;10.10;99.90
21092;DHT22;10704;42.678;23.288;2023-05-14T07:53:29;10.20;99.90
21092;DHT22;10704;42.678;23.288;2023-05-14T07:55:55;10.30;99.90
21092;DHT22;10704;42.678;23.288;2023-05-14T07:58:21;10.20;99.90
21092;DHT22;10704;42.678;23.288;2023-05-14T08:00:47;10.20;99.90
21092;DHT22;10704;42.678;23.288;2023-05-14T08:03:13;10.30;99.90
21092;DHT22;10704;42.678;23.288;2023-05-14T08:05:39;10.30;99.90
21092;DHT22;10704;42.678;23.288;2023-05-14T08:08:05;10.20;99.90
21092;DHT22;10704;42.678;23.288;2023-05-14T08:10:31;10.20;99.90
21092;DHT22;10704;42.678;23.288;2023-05-14T08:12:56;10.20;99.90
21092;DHT22;10704;42.678;23.288;2023-05-14T08:15:22;10.30;99.90
21092;DHT22;10704;42.678;23.288;2023-05-14T08:17:48;10.30;99.90
21092;DHT22;10704;42.678;23.288;2023-05-14T08:20:14;10.40;99.90
21092;DHT22;10704;42.678;23.288;2023-05-14T08:22:40;10.30;99.90
21092;DHT22;10704;42.678;23.288;2023-05-14T08:25:06;10.30;99.90
21092;DHT22;10704;42.678;23.288;2023-05-14T08:27:32;10.40;99.90
21092;DHT22;10704;42.678;23.288;2023-05-14T08:29:58;10.40;99.90
21092;DHT22;10704;42.678;23.288;2023-05-14T08:32:24;10.50;99.90
21092;DHT22;10704;42.678;23.288;2023-05-14T08:34:50;10.60;99.90
21092;DHT22;10704;42.678;23.288;2023-05-14T08:37:16;10.70;99.90
21092;DHT22;10704;42.678;23.288;2023-05-14T08:39:42;10.80;99.90
21092;DHT22;10704;42.678;23.288;2023-05-14T08:42:11;10.70;99.90
21092;DHT22;10704;42.678;23.288;2023-05-14T08:44:52;10.70;99.90
21092;DHT22;10704;42.678;23.288;2023-05-14T08:47:21;10.70;99.90
21092;DHT22;10704;42.678;23.288;2023-05-14T08:49:53;10.70;99.90
21092;DHT22;10704;42.678;23.288;2023-05-14T08:52:21;10.60;99.90
21092;DHT22;10704;42.678;23.288;2023-05-14T08:54:49;10.60;99.90
21092;DHT22;10704;42.678;23.288;2023-05-14T08:57:17;10.50;99.90
21092;DHT22;10704;42.678;23.288;2023-05-14T08:59:43;10.60;99.90
21092;DHT22;10704;42.678;23.288;2023-05-14T09:02:09;10.60;99.90
21092;DHT22;10704;42.678;23.288;2023-05-14T09:04:36;10.70;99.90
21092;DHT22;10704;42.678;23.288;2023-05-14T09:07:02;10.90;99.90
21092;DHT22;10704;42.678;23.288;2023-05-14T09:09:28;11.10;99.90
21092;DHT22;10704;42.678;23.288;2023-05-14T09:11:55;11.20;99.90
21092;DHT22;10704;42.678;23.288;2023-05-14T09:14:21;11.10;99.90
21092;DHT22;10704;42.678;23.288;2023-05-14T09:16:49;11.20;99.90
21092;DHT22;10704;42.678;23.288;2023-05-14T09:19:16;11.10;99.90
21092;DHT22;10704;42.678;23.288;2023-05-14T09:21:47;11.10;99.90
21092;DHT22;10704;42.678;23.288;2023-05-14T09:24:21;10.90;99.90
21092;DHT22;10704;42.678;23.288;2023-05-14T09:26:52;10.80;99.90
21092;DHT22;10704;42.678;23.288;2023-05-14T09:29:18;10.80;99.90
21092;DHT22;10704;42.678;23.288;2023-05-14T09:31:49;10.90;99.90
21092;DHT22;10704;42.678;23.288;2023-05-14T09:34:26;11.00;99.90
21092;DHT22;10704;42.678;23.288;2023-05-14T09:36:57;10.90;99.90
21092;DHT22;10704;42.678;23.288;2023-05-14T09:39:24;10.90;99.90
21092;DHT22;10704;42.678;23.288;2023-05-14T09:41:51;10.90;99.90
21092;DHT22;10704;42.678;23.288;2023-05-14T09:44:18;10.90;99.90
21092;DHT22;10704;42.678;23.288;2023-05-14T09:46:47;10.90;99.90
21092;DHT22;10704;42.678;23.288;2023-05-14T09:49:14;10.90;99.90
21092;DHT22;10704;42.678;23.288;2023-05-14T09:51:40;10.90;99.90
21092;DHT22;10704;42.678;23.288;2023-05-14T09:54:06;11.00;99.90
21092;DHT22;10704;42.678;23.288;2023-05-14T09:56:33;11.20;99.90
21092;DHT22;10704;42.678;23.288;2023-05-14T09:59:00;11.20;99.90
21092;DHT22;10704;42.678;23.288;2023-05-14T10:01:27;11.30;99.90
21092;DHT22;10704;42.678;23.288;2023-05-14T10:03:54;11.10;99.90
21092;DHT22;10704;42.678;23.288;2023-05-14T10:06:30;11.10;99.90
21092;DHT22;10704;42.678;23.288;2023-05-14T10:09:01;11.00;99.90
21092;DHT22;10704;42.678;23.288;2023-05-14T10:11:31;10.90;99.90
21092;DHT22;10704;42.678;23.288;2023-05-14T10:14:25;10.80;99.90
21092;DHT22;10704;42.678;23.288;2023-05-14T10:16:52;10.80;99.90
21092;DHT22;10704;42.678;23.288;2023-05-14T10:19:20;10.80;99.90
21092;DHT22;10704;42.678;23.288;2023-05-14T10:21:52;10.90;99.90
21092;DHT22;10704;42.678;23.288;2023-05-14T10:24:21;10.80;99.90
21092;DHT22;10704;42.678;23.288;2023-05-14T10:26:47;10.70;99.90
21092;DHT22;10704;42.678;23.288;2023-05-14T10:29:13;10.80;99.90
21092;DHT22;10704;42.678;23.288;2023-05-14T10:31:52;10.80;99.90
21092;DHT22;10704;42.678;23.288;2023-05-14T10:34:38;10.70;99.90
21092;DHT22;10704;42.678;23.288;2023-05-14T10:37:21;10.70;99.90
21092;DHT22;10704;42.678;23.288;2023-05-14T10:42:25;10.70;99.90
21092;DHT22;10704;42.678;23.288;2023-05-14T10:44:56;10.90;99.90
21092;DHT22;10704;42.678;23.288;2023-05-14T10:47:30;10.90;99.90
21092;DHT22;10704;42.678;23.288;2023-05-14T10:50:07;10.90;99.90
21092;DHT22;10704;42.678;23.288;2023-05-14T10:52:34;10.90;99.90
21092;DHT22;10704;42.678;23.288;2023-05-14T10:55:03;10.80;99.90
21092;DHT22;10704;42.678;23.288;2023-05-14T10:57:33;10.80;99.90
21092;DHT22;10704;42.678;23.288;2023-05-14T11:00:00;10.80;99.90
21092;DHT22;10704;42.678;23.288;2023-05-14T11:02:30;10.80;99.90
21092;DHT22;10704;42.678;23.288;2023-05-14T11:07:32;11.10;99.90
21092;DHT22;10704;42.678;23.288;2023-05-14T11:10:06;11.10;99.90
21092;DHT22;10704;42.678;23.288;2023-05-14T11:12:34;11.10;99.90
21092;DHT22;10704;42.678;23.288;2023-05-14T11:15:03;11.00;99.90
21092;DHT22;10704;42.678;23.288;2023-05-14T11:17:31;11.20;99.90
21092;DHT22;10704;42.678;23.288;2023-05-14T11:19:57;11.30;99.90
21092;DHT22;10704;42.678;23.288;2023-05-14T11:22:24;11.50;99.90
21092;DHT22;10704;42.678;23.288;2023-05-14T11:24:50;11.60;99.90
21092;DHT22;10704;42.678;23.288;2023-05-14T11:27:17;11.50;99.90
21092;DHT22;10704;42.678;23.288;2023-05-14T11:29:47;11.50;99.90
21092;DHT22;10704;42.678;23.288;2023-05-14T11:32:14;11.40;99.90
21092;DHT22;10704;42.678;23.288;2023-05-14T11:34:41;11.30;99.90
21092;DHT22;10704;42.678;23.288;2023-05-14T11:37:09;11.40;99.90
21092;DHT22;10704;42.678;23.288;2023-05-14T11:39:37;11.40;99.90
21092;DHT22;10704;42.678;23.288;2023-05-14T11:42:12;11.50;99.90
21092;DHT22;10704;42.678;23.288;2023-05-14T11:44:40;11.50;99.90
21092;DHT22;10704;42.678;23.288;2023-05-14T11:47:09;11.50;99.90
21092;DHT22;10704;42.678;23.288;2023-05-14T11:49:36;11.50;99.90
21092;DHT22;10704;42.678;23.288;2023-05-14T11:52:07;11.50;99.90
21092;DHT22;10704;42.678;23.288;2023-05-14T11:54:35;11.70;99.90
21092;DHT22;10704;42.678;23.288;2023-05-14T11:57:06;11.70;99.90
21092;DHT22;10704;42.678;23.288;2023-05-14T11:59:32;11.90;99.90
21092;DHT22;10704;42.678;23.288;2023-05-14T12:01:58;12.00;99.90
21092;DHT22;10704;42.678;23.288;2023-05-14T12:04:24;12.10;99.90
21092;DHT22;10704;42.678;23.288;2023-05-14T12:06:53;12.30;99.90
21092;DHT22;10704;42.678;23.288;2023-05-14T12:09:20;12.30;99.90
21092;DHT22;10704;42.678;23.288;2023-05-14T12:11:48;12.40;99.90
21092;DHT22;10704;42.678;23.288;2023-05-14T12:14:22;12.70;99.90
21092;DHT22;10704;42.678;23.288;2023-05-14T12:16:49;13.00;99.90
21092;DHT22;10704;42.678;23.288;2023-05-14T12:19:18;13.30;99.90
21092;DHT22;10704;42.678;23.288;2023-05-14T12:21:46;13.30;99.90
21092;DHT22;10704;42.678;23.288;2023-05-14T12:24:14;13.20;99.90
21092;DHT22;10704;42.678;23.288;2023-05-14T12:26:44;12.90;99.90
21092;DHT22;10704;42.678;23.288;2023-05-14T12:29:13;12.80;99.90
21092;DHT22;10704;42.678;23.288;2023-05-14T12:31:48;13.00;99.90
21092;DHT22;10704;42.678;23.288;2023-05-14T12:34:15;13.30;99.90
21092;DHT22;10704;42.678;23.288;2023-05-14T12:36:42;13.20;99.90
21092;DHT22;10704;42.678;23.288;2023-05-14T12:39:09;13.10;99.90
21092;DHT22;10704;42.678;23.288;2023-05-14T12:41:35;13.00;99.90
21092;DHT22;10704;42.678;23.288;2023-05-14T12:44:02;12.80;99.90
21092;DHT22;10704;42.678;23.288;2023-05-14T12:46:29;12.80;99.90
21092;DHT22;10704;42.678;23.288;2023-05-14T12:48:56;12.80;99.90
21092;DHT22;10704;42.678;23.288;2023-05-14T12:51:22;12.90;99.90
21092;DHT22;10704;42.678;23.288;2023-05-14T12:53:48;13.00;99.90
21092;DHT22;10704;42.678;23.288;2023-05-14T12:56:15;13.00;99.90
21092;DHT22;10704;42.678;23.288;2023-05-14T12:58:40;12.90;99.90
21092;DHT22;10704;42.678;23.288;2023-05-14T13:01:06;12.80;99.90
21092;DHT22;10704;42.678;23.288;2023-05-14T13:03:32;12.60;99.90
21092;DHT22;10704;42.678;23.288;2023-05-14T13:05:58;12.60;99.90
21092;DHT22;10704;42.678;23.288;2023-05-14T13:08:24;12.60;99.90
21092;DHT22;10704;42.678;23.288;2023-05-14T13:10:51;12.70;99.90
21092;DHT22;10704;42.678;23.288;2023-05-14T13:13:17;12.70;99.90
21092;DHT22;10704;42.678;23.288;2023-05-14T13:15:43;12.80;99.90
21092;DHT22;10704;42.678;23.288;2023-05-14T13:18:16;12.70;99.90
21092;DHT22;10704;42.678;23.288;2023-05-14T13:20:41;12.60;99.90
21092;DHT22;10704;42.678;23.288;2023-05-14T13:23:07;12.40;99.90
21092;DHT22;10704;42.678;23.288;2023-05-14T13:25:34;12.40;99.90
21092;DHT22;10704;42.678;23.288;2023-05-14T13:28:00;12.40;99.90
21092;DHT22;10704;42.678;23.288;2023-05-14T13:30:26;12.40;99.90
21092;DHT22;10704;42.678;23.288;2023-05-14T13:32:52;12.50;99.90
21092;DHT22;10704;42.678;23.288;2023-05-14T13:35:17;12.70;99.90
21092;DHT22;10704;42.678;23.288;2023-05-14T13:37:43;12.60;99.90
21092;DHT22;10704;42.678;23.288;2023-05-14T13:40:10;12.50;99.90
21092;DHT22;10704;42.678;23.288;2023-05-14T13:42:36;12.50;99.90
21092;DHT22;10704;42.678;23.288;2023-05-14T13:45:04;12.50;99.90
21092;DHT22;10704;42.678;23.288;2023-05-14T13:47:30;12.40;99.90
21092;DHT22;10704;42.678;23.288;2023-05-14T13:49:57;12.40;99.90
21092;DHT22;10704;42.678;23.288;2023-05-14T13:52:23;12.30;99.90
21092;DHT22;10704;42.678;23.288;2023-05-14T13:54:48;12.20;99.90
21092;DHT22;10704;42.678;23.288;2023-05-14T13:57:14;12.20;99.90
21092;DHT22;10704;42.678;23.288;2023-05-14T13:59:41;12.10;99.90
21092;DHT22;10704;42.678;23.288;2023-05-14T14:02:07;12.00;99.90
21092;DHT22;10704;42.678;23.288;2023-05-14T14:04:33;12.00;99.90
21092;DHT22;10704;42.678;23.288;2023-05-14T14:06:59;12.10;99.90
21092;DHT22;10704;42.678;23.288;2023-05-14T14:09:25;12.10;99.90
21092;DHT22;10704;42.678;23.288;2023-05-14T14:11:51;12.10;99.90
21092;DHT22;10704;42.678;23.288;2023-05-14T14:14:17;12.00;99.90
21092;DHT22;10704;42.678;23.288;2023-05-14T14:16:43;11.80;99.90
21092;DHT22;10704;42.678;23.288;2023-05-14T14:19:09;11.80;99.90
21092;DHT22;10704;42.678;23.288;2023-05-14T14:21:36;11.70;99.90
21092;DHT22;10704;42.678;23.288;2023-05-14T14:24:04;11.70;99.90
21092;DHT22;10704;42.678;23.288;2023-05-14T14:26:30;11.80;99.90
21092;DHT22;10704;42.678;23.288;2023-05-14T14:28:56;11.80;99.90
21092;DHT22;10704;42.678;23.288;2023-05-14T14:31:22;11.80;99.90
21092;DHT22;10704;42.678;23.288;2023-05-14T14:33:48;11.70;99.90
21092;DHT22;10704;42.678;23.288;2023-05-14T14:36:14;11.70;99.90
21092;DHT22;10704;42.678;23.288;2023-05-14T14:38:40;11.70;99.90
21092;DHT22;10704;42.678;23.288;2023-05-14T14:41:06;11.60;99.90
21092;DHT22;10704;42.678;23.288;2023-05-14T14:43:35;11.50;99.90
21092;DHT22;10704;42.678;23.288;2023-05-14T14:46:01;11.40;99.90
21092;DHT22;10704;42.678;23.288;2023-05-14T14:48:28;11.40;99.90
21092;DHT22;10704;42.678;23.288;2023-05-14T14:50:56;11.30;99.90
21092;DHT22;10704;42.678;23.288;2023-05-14T14:53:23;11.20;99.90
21092;DHT22;10704;42.678;23.288;2023-05-14T14:55:49;11.30;99.90
21092;DHT22;10704;42.678;23.288;2023-05-14T14:58:17;11.30;99.90
21092;DHT22;10704;42.678;23.288;2023-05-14T15:00:44;11.30;99.90
21092;DHT22;10704;42.678;23.288;2023-05-14T15:03:10;11.40;99.90
21092;DHT22;10704;42.678;23.288;2023-05-14T15:05:36;11.30;99.90
21092;DHT22;10704;42.678;23.288;2023-05-14T15:08:03;11.30;99.90
21092;DHT22;10704;42.678;23.288;2023-05-14T15:10:30;11.20;99.90
21092;DHT22;10704;42.678;23.288;2023-05-14T15:12:57;11.20;99.90
21092;DHT22;10704;42.678;23.288;2023-05-14T15:15:24;11.00;99.90
21092;DHT22;10704;42.678;23.288;2023-05-14T15:17:50;11.00;99.90
21092;DHT22;10704;42.678;23.288;2023-05-14T15:20:16;10.90;99.90
21092;DHT22;10704;42.678;23.288;2023-05-14T15:22:43;10.80;99.90
21092;DHT22;10704;42.678;23.288;2023-05-14T15:25:09;10.80;99.90
21092;DHT22;10704;42.678;23.288;2023-05-14T15:27:35;10.80;99.90